Share

Jackson, MN

Jackson Municipal (KMJQ) Elev 1447 ft | 43.65 °N, 94.99 °W | Change Station
Active Advisory: Fire Weather Warning

Current weather conditions updated 7 minutes ago

Overcast
Overcast
59 °F
Feels Like 59 °F
N
4
Wind Variable Wind from NW
Sunrise 6:27 AM
Sunset 8:10 PM
Moon Waning Gibbous

Today is forecast to be Much Cooler than yesterday.

Pressure 29.96 in
Visibility 10.0 miles
Clouds Scattered Clouds 1700 ft
Overcast 2800 ft
Dew Point 52 °F
Humidity 77%
Rainfall 0.00 in
Snow Depth Not available.
UV 0 out of 16
Pollen 9.70 out of 12
Air Quality Not available.
Flu Activity Sporadic
METAR KMJQ 211152Z AUTO 32003KT 10SM SCT017 OVC028 15/11 A2996 RMK AO2

More Conditions Fewer Conditions

Pressure 29.96 in
Visibility 10.0 miles
Clouds Scattered Clouds 1700 ft
Overcast 2800 ft
Dew Point 52 °F
Humidity 77%
Rainfall 0.00 in
Snow Depth Not available.
UV 0 out of 16
Pollen 9.70 out of 12
Air Quality Not available.
Flu Activity Sporadic
METAR KMJQ 211152Z AUTO 32003KT 10SM SCT017 OVC028 15/11 A2996 RMK AO2

More Conditions Fewer Conditions

10-Day Weather Forecast

Almanac

Astronomy

Apr. 21, 2014 Rise Set
Actual Time 6:27 AM CDT 8:10 PM CDT
Civil Twilight 5:56 AM CDT 8:41 PM CDT
Nautical Twilight 5:20 AM CDT 9:18 PM CDT
Astronomical Twilight 4:40 AM CDT 9:58 PM CDT
Moon 1:44 AM CDT 11:52 AM CDT
Length of Visible Light 14h 44m
Length of Day
13h 43m
Tomorrow will be 2m 46s longer.
Waning Gibbous, 59% of the Moon is Illuminated
Today
Waning Gibbous
Apr 22
Last Quarter
Apr 29
New
May 6
First Quarter
May 14
Full

Today's Extremes

State Highs State Lows

Community

  • Snowy Robin
    Snowy Robin
  • Sun Pillar and Geese
    Sun Pillar and Geese
  • Showers on the Way
    Showers on the Way
  • Easter Morning Fog
    Easter Morning Fog
  • Easter Dance
    Easter Dance

WunderPhotos

Upload Photos

1,703,595 photos uploaded!

Nearby

Snow Depth

Station Depth Elevation
No new snow has been reported.

Coastal Water Temperatures

Place Temperature
No Stations Reporting

Earthquake Activity

City Distance Mag. Time & Date
No recent earthquake activity has been reported nearby.
Minimum magnitude displayed is 2.5.

Nearby Weather Stations

Station Location Temp. Dew Point Humidity Wind Precip. Elev Updated Type
Dickinson Co. Courthouse, Spirit Lake, IA 56.9 °F 55 °F 92% SSW  at  0.0 mph 0.00 in / hr 1470 ft 6:59 AM CDT Rapid Fire
MesoWest HERONL , Heron Lake, MN 57 °F - - North  at  - 0.00 in / hr 1404 ft 4:30 AM CDT MADIS
MesoWest MTLAKE , Mountain Lake, MN 55 °F - - North  at  - 0.00 in / hr 1286 ft 3:45 AM CDT MADIS
Milford Fire Station, Milford, IA 56.2 °F 54 °F 93% SW  at  1.0 mph 0.00 in / hr 1443 ft 6:59 AM CDT Rapid Fire
Dugout Creek, Lake Park, IA 52.2 °F 49 °F 89% SW  at  0.0 mph 0.00 in / hr 1444 ft 6:59 AM CDT Rapid Fire

Show More Stations Show Fewer Stations

What do you think?

We're not finished. Please let us know what you like, what you don't like, and what you are still missing.